Time;durP1;ratioP1;P1;durP2;ratioP2;P2;SDS_P1;SDS_P2;PMS_P1;PMS_P2;Temp;Humidity;BMP_temperature;BMP_pressure;BME280_temperature;BME280_humidity;BME280_pressure;Samples;Min_cycle;Max_cycle;Signal;HPM_P1;HPM_P2
2023/03/29 00:02:06;;;;;;;2.87;2.27;;;;;;;-0.75;66.79;100971.56;1425520;91;22263;-76
2023/03/29 00:04:32;;;;;;;5.05;2.10;;;;;;;-0.72;67.47;100976.63;1424703;91;21524;-76
2023/03/29 00:07:03;;;;;;;4.47;2.75;;;;;;;-0.73;67.01;100977.55;1422232;91;22411;-76
2023/03/29 00:09:27;;;;;;;6.95;3.35;;;;;;;-0.75;66.84;100981.95;1427547;91;21434;-77
2023/03/29 00:11:53;;;;;;;4.37;2.12;;;;;;;-0.82;66.29;100986.56;1427243;91;21597;-76
2023/03/29 00:14:19;;;;;;;3.12;2.10;;;;;;;-0.83;65.75;100987.94;1424075;91;22351;-77
2023/03/29 00:16:46;;;;;;;3.60;2.02;;;;;;;-0.83;65.89;100983.59;1424916;91;21547;-77
2023/03/29 00:19:12;;;;;;;5.72;2.42;;;;;;;-0.84;65.90;100987.07;1427013;91;21427;-75
2023/03/29 00:21:38;;;;;;;4.00;2.20;;;;;;;-0.85;66.29;100989.28;1421747;91;21435;-77
2023/03/29 00:24:05;;;;;;;3.08;2.30;;;;;;;-0.91;65.26;100983.03;1425094;91;21420;-77
2023/03/29 00:26:31;;;;;;;5.05;2.17;;;;;;;-0.92;65.20;100982.66;1425411;91;21341;-77
2023/03/29 00:28:57;;;;;;;6.15;2.17;;;;;;;-0.93;65.23;100979.64;1424205;91;21436;-77
2023/03/29 00:31:23;;;;;;;5.35;2.27;;;;;;;-0.95;64.99;100977.55;1425564;91;21605;-77
2023/03/29 00:33:50;;;;;;;4.85;2.40;;;;;;;-0.96;64.41;100979.31;1423973;91;21599;-77
2023/03/29 00:36:16;;;;;;;4.62;2.45;;;;;;;-0.95;63.83;100975.83;1422643;91;21494;-76
2023/03/29 00:38:42;;;;;;;3.77;2.25;;;;;;;-0.95;63.90;100976.25;1416965;91;21346;-77
2023/03/29 00:41:09;;;;;;;3.60;2.05;;;;;;;-0.98;62.90;100978.55;1406285;91;22305;-77
2023/03/29 00:44:01;;;;;;;7.05;2.37;;;;;;;-0.96;63.79;100970.21;1432623;91;22471;-77
2023/03/29 00:46:29;;;;;;;4.55;2.62;;;;;;;-0.99;63.44;100969.50;1426140;91;22205;-78
2023/03/29 00:49:04;;;;;;;6.03;2.65;;;;;;;-1.02;63.82;100970.92;1429295;91;21520;-76
2023/03/29 00:51:34;;;;;;;4.95;2.60;;;;;;;-1.02;63.83;100973.52;1428354;91;22367;-76
2023/03/29 00:54:04;;;;;;;5.15;3.05;;;;;;;-1.05;63.83;100974.94;1426604;91;21420;-76
2023/03/29 00:56:39;;;;;;;4.30;2.75;;;;;;;-1.05;63.83;100974.48;1429315;91;21476;-77
2023/03/29 00:59:16;;;;;;;2.92;2.30;;;;;;;-1.08;63.30;100973.30;1432724;91;21457;-78
2023/03/29 01:02:04;;;;;;;4.35;2.62;;;;;;;-1.09;63.33;100973.34;1434660;91;22580;-77
2023/03/29 01:04:40;;;;;;;6.08;3.10;;;;;;;-1.09;63.78;100974.22;1429044;91;21398;-77
2023/03/29 01:07:20;;;;;;;4.37;2.40;;;;;;;-1.09;64.11;100975.52;1424401;91;22350;-77
2023/03/29 01:10:00;;;;;;;4.95;2.10;;;;;;;-1.11;63.96;100976.02;1421884;91;21450;-77
2023/03/29 01:12:31;;;;;;;4.83;2.83;;;;;;;-1.13;63.89;100976.53;1428061;91;22432;-78
2023/03/29 01:15:11;;;;;;;6.40;2.87;;;;;;;-1.13;63.97;100985.62;1425148;91;21428;-77
2023/03/29 01:17:39;;;;;;;3.77;2.60;;;;;;;-1.14;64.11;100977.45;1426722;91;21528;-77
2023/03/29 01:20:19;;;;;;;3.83;2.40;;;;;;;-1.17;63.70;100978.86;1429659;91;21473;-77
2023/03/29 01:23:15;;;;;;;5.47;2.52;;;;;;;-1.19;63.33;100980.66;1393411;93;21434;-77
2023/03/29 01:26:13;;;;;;;4.37;2.30;;;;;;;-1.22;63.09;100979.03;1400305;93;21471;-78
2023/03/29 01:28:50;;;;;;;4.97;3.17;;;;;;;-1.21;63.70;100983.77;1395535;93;22712;-78
2023/03/29 01:31:25;;;;;;;2.92;1.90;;;;;;;-1.22;63.80;100982.08;1398495;93;21470;-77
2023/03/29 01:33:56;;;;;;;6.25;3.08;;;;;;;-1.25;63.58;100984.80;1399838;93;21442;-77
2023/03/29 01:36:39;;;;;;;6.47;3.45;;;;;;;-1.28;63.85;100984.92;1394085;93;21434;-77
2023/03/29 01:39:06;;;;;;;4.90;2.85;;;;;;;-1.30;63.99;100989.31;1403730;93;21501;-77
2023/03/29 01:41:44;;;;;;;4.22;2.87;;;;;;;-1.35;63.77;100981.72;1400725;93;22242;-77
2023/03/29 01:44:16;;;;;;;4.97;2.92;;;;;;;-1.38;64.32;100989.17;1398017;93;21464;-78
2023/03/29 01:46:51;;;;;;;7.92;3.72;;;;;;;-1.41;64.58;100986.69;1398649;93;21463;-76
2023/03/29 01:49:28;;;;;;;6.80;3.87;;;;;;;-1.44;64.62;100984.21;1382564;93;21470;-75
2023/03/29 01:52:09;;;;;;;6.62;3.00;;;;;;;-1.48;64.64;100989.11;1388773;93;21575;-76
2023/03/29 01:54:43;;;;;;;5.37;2.92;;;;;;;-1.50;64.95;100992.20;1391685;93;21677;-76
2023/03/29 01:57:11;;;;;;;4.85;2.33;;;;;;;-1.51;64.86;100987.08;1394744;93;21648;-76
2023/03/29 01:59:41;;;;;;;6.45;3.50;;;;;;;-1.53;64.64;100985.83;1404621;91;22245;-76
2023/03/29 02:02:13;;;;;;;9.00;4.70;;;;;;;-1.56;64.64;100988.53;1431751;91;21413;-76
2023/03/29 02:04:46;;;;;;;10.23;5.67;;;;;;;-1.59;64.62;100986.06;1427040;91;22367;-76
2023/03/29 02:07:16;;;;;;;12.30;4.80;;;;;;;-1.61;64.47;100991.78;1428476;91;21479;-76
2023/03/29 02:09:44;;;;;;;12.47;4.28;;;;;;;-1.63;64.88;100987.09;1424932;91;22415;-76
2023/03/29 02:12:11;;;;;;;5.83;3.55;;;;;;;-1.66;64.57;100993.69;1422967;91;21369;-76
2023/03/29 02:14:37;;;;;;;5.87;2.80;;;;;;;-1.71;65.07;100987.36;1421359;91;21353;-75
2023/03/29 02:17:21;;;;;;;5.45;2.55;;;;;;;-1.72;64.88;100988.27;1426072;91;21584;-76
2023/03/29 02:19:56;;;;;;;13.00;3.05;;;;;;;-1.74;64.83;100986.63;1424810;91;21390;-76
2023/03/29 02:22:35;;;;;;;6.40;2.90;;;;;;;-1.74;64.81;100995.70;1426541;91;21397;-78
2023/03/29 02:25:07;;;;;;;4.85;3.15;;;;;;;-1.77;64.96;100991.93;1426698;91;21481;-79
2023/03/29 02:27:32;;;;;;;7.45;3.33;;;;;;;-1.77;65.02;100989.34;1431800;91;21591;-79
2023/03/29 02:29:59;;;;;;;6.42;3.12;;;;;;;-1.79;64.95;100988.53;1425251;91;21443;-80
2023/03/29 02:32:31;;;;;;;5.67;3.10;;;;;;;-1.77;65.09;100993.23;1428928;91;21434;-80
2023/03/29 02:35:14;;;;;;;7.15;2.80;;;;;;;-1.79;65.68;100995.02;1421901;91;22351;-77
2023/03/29 02:37:45;;;;;;;8.73;3.17;;;;;;;-1.83;65.59;101000.33;1424565;91;21516;-76
2023/03/29 02:40:13;;;;;;;5.08;3.25;;;;;;;-1.83;65.50;100996.89;1420186;91;22359;-79
2023/03/29 02:42:42;;;;;;;3.40;1.90;;;;;;;-1.85;65.75;100998.68;1415304;91;21576;-78
2023/03/29 02:45:13;;;;;;;8.13;3.47;;;;;;;-1.85;63.00;100996.09;1432967;91;21405;-79
2023/03/29 02:47:46;;;;;;;10.05;4.37;;;;;;;-1.77;64.20;101003.15;1431128;91;21332;-78
2023/03/29 02:50:13;;;;;;;6.08;3.02;;;;;;;-1.70;64.13;101002.47;1421083;91;21457;-78
2023/03/29 02:52:44;;;;;;;10.13;2.83;;;;;;;-1.66;64.10;101010.56;1420942;91;21467;-79
2023/03/29 02:55:15;;;;;;;7.08;3.27;;;;;;;-1.62;63.70;101004.34;1425104;91;21361;-80
2023/03/29 02:57:42;;;;;;;13.70;4.97;;;;;;;-1.63;62.94;101009.15;1428590;91;22328;-79
2023/03/29 03:00:11;;;;;;;10.58;3.17;;;;;;;-1.62;62.23;101011.67;1426485;91;21383;-79
2023/03/29 03:02:37;;;;;;;7.08;3.70;;;;;;;-1.59;62.45;101014.16;1420882;91;21472;-77
2023/03/29 03:05:05;;;;;;;6.80;3.50;;;;;;;-1.57;62.99;101008.08;1426919;91;21590;-77
2023/03/29 03:07:32;;;;;;;7.45;3.65;;;;;;;-1.57;62.65;101014.57;1422111;91;21567;-78
2023/03/29 03:09:58;;;;;;;9.20;4.08;;;;;;;-1.60;62.05;101012.92;1424239;91;21383;-79
2023/03/29 03:12:26;;;;;;;6.97;2.85;;;;;;;-1.58;62.50;101021.52;1433342;91;21787;-79
2023/03/29 03:14:52;;;;;;;10.60;4.58;;;;;;;-1.61;62.03;101022.47;1423147;91;21383;-78
2023/03/29 03:17:18;;;;;;;6.85;2.67;;;;;;;-1.60;62.37;101024.61;1423499;91;21362;-78
2023/03/29 03:19:44;;;;;;;14.35;3.90;;;;;;;-1.61;62.23;101021.62;1426077;91;21525;-79
2023/03/29 03:22:11;;;;;;;10.38;3.87;;;;;;;-1.57;62.38;101028.39;1424329;91;21466;-78
2023/03/29 03:24:38;;;;;;;6.87;3.05;;;;;;;-1.57;62.02;101028.39;1400197;91;21512;-76
2023/03/29 03:27:04;;;;;;;12.23;4.45;;;;;;;-1.55;62.34;101029.19;1418169;91;22263;-77
2023/03/29 03:29:30;;;;;;;7.53;2.58;;;;;;;-1.53;62.58;101029.12;1425749;91;21443;-78
2023/03/29 03:31:56;;;;;;;12.68;4.83;;;;;;;-1.52;62.28;101036.02;1427414;91;21708;-83
2023/03/29 03:34:22;;;;;;;5.58;2.10;;;;;;;-1.53;61.79;101041.64;1435193;91;21427;-84
2023/03/29 03:36:49;;;;;;;7.65;3.77;;;;;;;-1.54;61.74;101042.55;1425633;91;21472;-83
2023/03/29 03:39:16;;;;;;;9.30;3.05;;;;;;;-1.54;61.47;101045.16;1425774;91;21538;-83
2023/03/29 03:41:42;;;;;;;4.45;2.05;;;;;;;-1.53;61.84;101047.30;1428511;91;22270;-84
2023/03/29 03:44:08;;;;;;;7.67;3.90;;;;;;;-1.53;61.92;101049.43;1408527;91;21550;-84
2023/03/29 03:46:35;;;;;;;5.97;2.72;;;;;;;-1.57;61.53;101045.72;1433210;91;21354;-83
2023/03/29 03:49:03;;;;;;;5.95;3.52;;;;;;;-1.56;61.80;101046.95;1426200;91;21362;-83
2023/03/29 03:51:30;;;;;;;8.10;3.17;;;;;;;-1.57;60.80;101049.16;1422967;91;21553;-83
2023/03/29 03:53:56;;;;;;;6.45;3.40;;;;;;;-1.59;60.46;101053.09;1425857;91;22255;-83
2023/03/29 03:56:23;;;;;;;7.15;4.62;;;;;;;-1.59;59.06;101047.90;1427775;91;21489;-82
2023/03/29 03:58:49;;;;;;;7.22;3.67;;;;;;;-1.60;57.82;101055.30;1427376;91;21516;-83
2023/03/29 04:01:15;;;;;;;9.43;4.47;;;;;;;-1.58;57.40;101057.86;1426941;91;22420;-83
2023/03/29 04:03:42;;;;;;;9.90;3.87;;;;;;;-1.54;58.23;101058.59;1430043;91;21339;-82
2023/03/29 04:06:08;;;;;;;6.40;3.33;;;;;;;-1.52;57.10;101060.69;1401317;91;21620;-83
2023/03/29 04:08:35;;;;;;;5.90;2.60;;;;;;;-1.52;57.18;101064.13;1431376;91;21621;-84
2023/03/29 04:11:01;;;;;;;6.30;2.70;;;;;;;-1.52;56.07;101073.21;1425620;91;21487;-83
2023/03/29 04:13:28;;;;;;;5.10;2.42;;;;;;;-1.49;56.25;101065.31;1426726;91;21544;-83
2023/03/29 04:15:55;;;;;;;4.72;2.20;;;;;;;-1.48;54.42;101071.34;1425135;91;22254;-83
2023/03/29 04:18:23;;;;;;;5.58;2.47;;;;;;;-1.43;55.02;101066.84;1426323;91;21520;-81
2023/03/29 04:20:50;;;;;;;7.62;2.90;;;;;;;-1.40;55.33;101075.81;1421291;91;21450;-84
2023/03/29 04:23:17;;;;;;;7.92;2.98;;;;;;;-1.40;54.67;101079.25;1419786;91;22322;-82
2023/03/29 04:25:43;;;;;;;4.25;2.87;;;;;;;-1.38;55.01;101076.16;1402243;91;21428;-83
2023/03/29 04:28:11;;;;;;;4.55;1.80;;;;;;;-1.37;54.63;101080.44;1428231;91;21361;-83
2023/03/29 04:30:38;;;;;;;5.10;2.10;;;;;;;-1.36;54.16;101084.72;1426008;91;21452;-83
2023/03/29 04:33:05;;;;;;;6.30;2.42;;;;;;;-1.34;53.05;101087.73;1424754;91;21383;-83
2023/03/29 04:35:32;;;;;;;5.25;2.62;;;;;;;-1.31;53.56;101085.02;1432186;91;21450;-84
2023/03/29 04:37:58;;;;;;;5.72;2.58;;;;;;;-1.28;53.88;101095.30;1429399;91;21513;-85
2023/03/29 04:40:24;;;;;;;8.23;2.42;;;;;;;-1.26;53.63;101098.70;1425101;91;21340;-85
2023/03/29 04:42:51;;;;;;;5.55;2.65;;;;;;;-1.21;54.74;101094.16;1424448;91;22316;-84
2023/03/29 04:45:17;;;;;;;5.53;2.85;;;;;;;-1.18;54.82;101105.30;1427036;91;22429;-85
2023/03/29 04:47:45;;;;;;;7.17;4.03;;;;;;;-1.14;55.50;101111.23;1425554;91;21383;-85
2023/03/29 04:50:14;;;;;;;10.88;3.58;;;;;;;-1.08;55.51;101116.65;1412910;91;21428;-84
2023/03/29 04:52:41;;;;;;;9.33;5.03;;;;;;;-1.12;55.40;101113.33;1427076;91;21450;-84
2023/03/29 04:55:08;;;;;;;7.35;3.95;;;;;;;-1.07;55.74;101120.48;1421061;91;22382;-85
2023/03/29 04:57:36;;;;;;;7.75;3.60;;;;;;;-1.05;56.04;101123.03;1426989;91;21636;-85
2023/03/29 05:00:13;;;;;;;11.97;4.97;;;;;;;-1.03;55.94;101128.57;1403866;91;21464;-83
2023/03/29 05:02:31;;;;;;;13.00;4.10;;;;;;;-1.04;55.81;101129.45;1418446;91;22337;-84
2023/03/29 05:04:58;;;;;;;7.50;3.67;;;;;;;-1.05;55.25;101129.07;1427219;91;21398;-85
2023/03/29 05:07:24;;;;;;;10.48;3.80;;;;;;;-1.04;55.11;101128.61;1427019;91;22417;-85
2023/03/29 05:09:50;;;;;;;7.55;3.55;;;;;;;-1.00;56.11;101135.41;1379655;92;22382;-84
2023/03/29 05:12:17;;;;;;;6.22;3.12;;;;;;;-0.98;55.93;101138.77;1424070;91;21347;-85
2023/03/29 05:14:43;;;;;;;11.03;4.60;;;;;;;-0.98;55.46;101134.87;1426620;91;21487;-84
2023/03/29 05:17:09;;;;;;;8.05;4.03;;;;;;;-0.95;55.15;101136.06;1423962;91;21520;-85
2023/03/29 05:19:37;;;;;;;9.05;3.92;;;;;;;-0.93;54.18;101135.10;1424821;91;21323;-84
2023/03/29 05:22:03;;;;;;;9.00;4.30;;;;;;;-0.88;53.74;101138.00;1425344;91;22414;-85
2023/03/29 05:24:30;;;;;;;10.53;3.85;;;;;;;-0.82;53.36;101142.97;1413036;92;21391;-84
2023/03/29 05:26:56;;;;;;;5.42;2.52;;;;;;;-0.76;53.06;101141.43;1408783;92;21369;-83
2023/03/29 05:29:22;;;;;;;6.22;2.62;;;;;;;-0.71;51.10;101144.72;1391077;92;21317;-83
2023/03/29 05:31:49;;;;;;;3.95;2.80;;;;;;;-0.59;51.55;101146.84;1424740;91;22543;-84
2023/03/29 05:34:15;;;;;;;11.12;2.87;;;;;;;-0.49;51.50;101142.99;1417950;91;22402;-84
2023/03/29 05:36:44;;;;;;;4.83;2.60;;;;;;;-0.38;51.59;101145.61;1424038;91;21480;-83
2023/03/29 05:39:10;;;;;;;14.10;3.02;;;;;;;-0.30;51.95;101148.30;1433818;91;21597;-84
2023/03/29 05:41:36;;;;;;;7.10;2.98;;;;;;;-0.24;51.09;101151.11;1426983;91;21326;-84
2023/03/29 05:44:03;;;;;;;4.85;2.20;;;;;;;-0.17;51.68;101155.19;1427471;91;21465;-87
2023/03/29 05:46:29;;;;;;;10.00;2.98;;;;;;;-0.14;48.91;101160.27;1427717;91;21450;-82
2023/03/29 05:48:56;;;;;;;3.98;2.37;;;;;;;-0.06;50.78;101158.20;1421041;91;22440;-83
2023/03/29 05:51:23;;;;;;;3.75;2.12;;;;;;;0.00;49.60;101151.91;1428206;91;22863;-83
2023/03/29 05:53:51;;;;;;;7.87;3.47;;;;;;;0.03;48.33;101156.11;1422859;91;21582;-83
2023/03/29 05:56:17;;;;;;;7.37;2.77;;;;;;;0.08;48.56;101155.48;1425419;91;22260;-83
2023/03/29 05:58:51;;;;;;;4.73;2.33;;;;;;;0.15;47.69;101156.94;1429829;91;21472;-85
2023/03/29 06:01:17;;;;;;;5.70;2.63;;;;;;;0.18;46.45;101150.30;1421851;91;21626;-81
2023/03/29 06:03:44;;;;;;;7.75;2.92;;;;;;;0.25;47.37;101152.18;1422510;91;22491;-83
2023/03/29 06:06:11;;;;;;;8.17;2.60;;;;;;;0.32;48.16;101154.48;1422873;91;21968;-85
2023/03/29 06:08:37;;;;;;;4.72;2.50;;;;;;;0.40;48.99;101145.89;1422377;91;22502;-86
2023/03/29 06:11:07;;;;;;;8.20;2.33;;;;;;;0.44;47.68;101146.14;1423659;91;22314;-86
2023/03/29 06:13:34;;;;;;;5.93;2.80;;;;;;;0.50;47.89;101143.73;1351062;91;21581;-83
2023/03/29 06:16:01;;;;;;;6.60;2.90;;;;;;;0.62;48.76;101152.31;1354588;91;21605;-84
2023/03/29 06:18:27;;;;;;;4.87;2.43;;;;;;;0.67;48.03;101159.94;1353937;91;21512;-85
2023/03/29 06:20:53;;;;;;;4.20;2.50;;;;;;;0.72;47.21;101161.89;1379206;91;21874;-86
2023/03/29 06:23:21;;;;;;;5.33;2.97;;;;;;;0.74;46.53;101165.26;1354855;91;21567;-84
2023/03/29 06:25:50;;;;;;;9.40;2.93;;;;;;;0.84;46.94;101165.27;1353574;91;21670;-85
2023/03/29 06:28:17;;;;;;;6.30;2.90;;;;;;;0.98;47.12;101170.30;1348479;91;21517;-84
2023/03/29 06:30:48;;;;;;;9.33;3.47;;;;;;;0.98;45.39;101170.30;1353546;91;21641;-84
2023/03/29 06:33:13;;;;;;;4.97;2.67;;;;;;;1.11;47.61;101164.94;1351953;92;21654;-83
2023/03/29 06:35:45;;;;;;;7.20;3.60;;;;;;;1.24;48.27;101170.00;1401812;91;22806;-81
2023/03/29 06:38:11;;;;;;;8.17;3.33;;;;;;;1.32;48.64;101164.41;1404408;91;21714;-85
2023/03/29 06:40:38;;;;;;;4.93;2.80;;;;;;;1.40;48.51;101163.61;1429217;91;21861;-82
2023/03/29 06:43:05;;;;;;;8.20;3.70;;;;;;;1.32;45.64;101163.98;1424777;91;22559;-83
2023/03/29 06:45:35;;;;;;;5.30;2.63;;;;;;;1.37;45.59;101165.52;1425711;91;21552;-84
2023/03/29 06:48:02;;;;;;;6.43;2.43;;;;;;;1.42;45.88;101167.47;1423556;91;21649;-83
2023/03/29 06:50:29;;;;;;;7.67;3.77;;;;;;;1.40;44.16;101174.05;1426496;91;21838;-83
2023/03/29 06:52:56;;;;;;;8.87;3.17;;;;;;;1.42;45.99;101179.20;1423726;91;21826;-83
2023/03/29 06:55:23;;;;;;;7.80;3.27;;;;;;;1.52;44.96;101183.06;1427580;91;21615;-87
2023/03/29 06:57:49;;;;;;;4.40;2.07;;;;;;;1.65;45.89;101192.48;1424998;91;21787;-87
2023/03/29 07:00:26;;;;;;;6.77;2.70;;;;;;;1.67;42.87;101183.67;1428036;91;21563;-84
2023/03/29 07:02:46;;;;;;;6.97;2.37;;;;;;;1.73;44.65;101187.76;1498335;91;21616;-88
2023/03/29 07:05:13;;;;;;;9.90;2.23;;;;;;;1.86;45.33;101188.01;1501105;91;21747;-86
2023/03/29 07:08:10;;;;;;;4.57;2.40;;;;;;;1.96;43.95;101192.72;1389927;91;21575;-87
2023/03/29 07:10:31;;;;;;;3.63;2.23;;;;;;;1.99;43.66;101185.21;1420871;91;21896;-85
2023/03/29 07:12:59;;;;;;;5.07;1.90;;;;;;;2.10;43.58;101190.76;1426602;91;21909;-85
2023/03/29 07:15:28;;;;;;;8.53;2.60;;;;;;;1.97;41.87;101186.58;1357756;91;21435;-87
2023/03/29 07:17:56;;;;;;;9.20;2.00;;;;;;;1.98;41.80;101186.11;1505743;91;21607;-85
2023/03/29 07:20:23;;;;;;;3.67;1.90;;;;;;;2.05;43.02;101190.13;1353246;91;21568;-85
2023/03/29 07:22:50;;;;;;;3.53;1.83;;;;;;;2.14;42.54;101189.67;1353545;91;22347;-85
2023/03/29 07:25:18;;;;;;;3.43;1.83;;;;;;;2.23;42.02;101194.44;1354908;91;21749;-85
2023/03/29 07:27:46;;;;;;;3.80;1.77;;;;;;;2.34;42.49;101195.69;1353225;91;21397;-82
2023/03/29 07:30:20;;;;;;;8.33;3.10;;;;;;;2.59;41.54;101181.78;1353514;91;21579;-85
2023/03/29 07:32:46;;;;;;;5.17;2.17;;;;;;;2.59;41.54;101181.78;1485338;91;22414;-85
2023/03/29 07:35:16;;;;;;;4.90;2.47;;;;;;;2.73;41.53;101184.14;1360117;91;21691;-84
2023/03/29 07:37:44;;;;;;;3.27;2.00;;;;;;;2.85;42.15;101184.80;1351553;91;21654;-84
2023/03/29 07:47:15;;;;;;;3.43;1.93;;;;;;;3.22;39.80;101194.65;1342935;95;22570;-82
2023/03/29 07:49:41;;;;;;;2.67;1.50;;;;;;;3.13;38.07;101205.97;1285213;98;21848;-84
2023/03/29 07:52:08;;;;;;;5.17;2.07;;;;;;;3.24;40.34;101204.58;1310931;95;21995;-83
2023/03/29 07:54:34;;;;;;;5.50;2.13;;;;;;;3.30;41.08;101213.41;1391455;95;21803;-84
2023/03/29 07:57:00;;;;;;;5.37;2.23;;;;;;;3.38;41.44;101215.16;1310350;95;22667;-85
2023/03/29 07:59:26;;;;;;;5.70;2.47;;;;;;;3.40;42.20;101209.38;1443981;95;21784;-85
2023/03/29 08:01:54;;;;;;;4.13;2.63;;;;;;;3.40;42.74;101208.08;1441535;95;21888;-86
2023/03/29 08:04:20;;;;;;;5.47;2.63;;;;;;;3.40;42.74;101208.08;1303931;95;22686;-86
2023/03/29 08:06:47;;;;;;;3.87;2.27;;;;;;;3.45;43.08;101217.80;1348558;95;21916;-87
2023/03/29 08:09:14;;;;;;;4.27;2.80;;;;;;;3.48;43.05;101221.59;1304246;95;22055;-84
2023/03/29 08:11:40;;;;;;;7.27;2.90;;;;;;;3.44;43.37;101208.27;1348603;95;22463;-87
2023/03/29 08:14:07;;;;;;;6.43;2.30;;;;;;;3.53;41.34;101218.23;1364560;95;22211;-86
2023/03/29 08:16:34;;;;;;;3.30;1.90;;;;;;;3.66;42.68;101223.67;1441965;95;22982;-87
2023/03/29 08:19:00;;;;;;;5.43;2.30;;;;;;;3.81;42.35;101225.44;1363088;95;22254;-85
2023/03/29 08:21:26;;;;;;;2.70;2.20;;;;;;;3.79;41.11;101222.52;1413228;92;22179;-87
2023/03/29 08:23:53;;;;;;;3.73;1.50;;;;;;;3.79;41.70;101216.81;1425501;91;22917;-86
2023/03/29 08:26:19;;;;;;;3.80;1.80;;;;;;;3.94;40.31;101219.08;1418272;91;22261;-84
2023/03/29 08:28:46;;;;;;;4.90;1.87;;;;;;;4.10;40.37;101219.52;1425697;91;22163;-83
2023/03/29 08:31:18;;;;;;;2.50;1.50;;;;;;;4.30;41.09;101221.84;1423257;91;22178;-87
2023/03/29 08:33:45;;;;;;;4.07;2.20;;;;;;;4.43;39.77;101216.72;1419453;91;22228;-88
2023/03/29 08:36:11;;;;;;;2.50;1.70;;;;;;;4.41;39.54;101211.59;1420971;91;22213;-86
2023/03/29 08:38:37;;;;;;;2.87;1.73;;;;;;;4.56;41.24;101209.01;1411407;91;22241;-87
2023/03/29 08:41:51;;;;;;;6.33;2.53;;;;;;;4.56;41.24;101209.01;1431668;91;22448;-86
2023/03/29 08:44:56;;;;;;;5.47;2.80;;;;;;;4.75;39.98;101206.52;1426072;91;22119;-89
2023/03/29 08:47:40;;;;;;;2.40;1.73;;;;;;;4.94;40.01;101207.56;1428140;91;21524;-79
2023/03/29 08:50:10;;;;;;;3.40;2.00;;;;;;;5.05;40.37;101206.92;1417811;92;21525;-85
2023/03/29 08:52:53;;;;;;;4.47;2.10;;;;;;;5.00;39.45;101208.97;1420394;91;21390;-84
2023/03/29 08:55:41;;;;;;;4.37;1.90;;;;;;;4.61;38.70;101203.88;1407230;91;21390;-87
2023/03/29 08:58:19;;;;;;;20.67;5.10;;;;;;;4.74;39.93;101202.67;1423358;90;21477;-85
2023/03/29 09:00:53;;;;;;;5.43;2.20;;;;;;;4.75;39.34;101207.00;1426603;91;22233;-86
2023/03/29 09:03:24;;;;;;;5.20;3.07;;;;;;;4.93;39.77;101204.58;1432776;90;21649;-84
2023/03/29 09:05:59;;;;;;;7.37;2.93;;;;;;;5.13;40.50;101205.16;1423123;91;21391;-80
2023/03/29 09:08:26;;;;;;;4.80;3.20;;;;;;;5.33;41.44;101195.58;1424080;91;21361;-81
2023/03/29 09:11:10;;;;;;;4.70;3.30;;;;;;;5.45;44.46;101189.20;1429899;91;21575;-84
2023/03/29 09:14:10;;;;;;;4.37;2.60;;;;;;;5.54;41.52;101199.12;1427939;91;22308;-86
2023/03/29 09:16:45;;;;;;;4.67;2.33;;;;;;;5.49;41.93;101188.05;1429066;91;21483;-87
2023/03/29 09:19:47;;;;;;;4.70;2.40;;;;;;;5.76;42.24;101190.26;1422849;91;21763;-87
2023/03/29 09:22:42;;;;;;;3.40;2.17;;;;;;;5.96;39.99;101180.30;1420560;91;21383;-81
2023/03/29 09:25:20;;;;;;;3.97;2.00;;;;;;;6.06;40.67;101170.38;1428630;91;21470;-81
2023/03/29 09:28:07;;;;;;;2.93;1.50;;;;;;;6.18;41.02;101189.75;1425259;91;21541;-80
2023/03/29 09:30:52;;;;;;;4.37;2.40;;;;;;;6.40;40.43;101177.83;1430188;91;21524;-83
2023/03/29 09:33:41;;;;;;;4.40;2.37;;;;;;;6.55;40.71;101189.94;1427210;91;21612;-84
2023/03/29 09:36:25;;;;;;;4.07;2.47;;;;;;;6.65;41.12;101192.34;1426615;91;21486;-85
2023/03/29 09:38:53;;;;;;;4.43;2.47;;;;;;;6.72;37.33;101180.92;1430181;91;21398;-85
2023/03/29 09:41:59;;;;;;;5.97;2.60;;;;;;;6.94;38.80;101172.41;1424852;91;21464;-85
2023/03/29 09:44:43;;;;;;;5.97;2.87;;;;;;;7.20;39.24;101178.01;1431083;91;21568;-87
2023/03/29 09:47:15;;;;;;;7.13;3.63;;;;;;;7.28;37.62;101180.11;1422898;91;22352;-87
2023/03/29 09:49:46;;;;;;;3.43;1.73;;;;;;;7.12;37.02;101167.17;1406788;91;22402;-87
2023/03/29 09:52:19;;;;;;;3.47;2.07;;;;;;;6.57;33.97;101174.91;1423969;91;21527;-85
2023/03/29 09:54:46;;;;;;;2.97;1.57;;;;;;;6.23;34.77;101177.16;1402088;91;21449;-83
2023/03/29 09:57:18;;;;;;;4.27;2.63;;;;;;;6.05;34.79;101175.27;1421714;91;21456;-85
2023/03/29 09:59:51;;;;;;;2.37;1.50;;;;;;;6.10;36.82;101171.88;1410431;91;21399;-87
2023/03/29 10:02:20;;;;;;;2.93;1.67;;;;;;;6.19;35.37;101173.05;1431628;91;21428;-86
2023/03/29 10:04:54;;;;;;;3.03;1.90;;;;;;;6.23;35.95;101174.53;1424972;91;21561;-86
2023/03/29 10:07:21;;;;;;;5.30;2.67;;;;;;;6.16;36.31;101171.95;1430325;91;21413;-85
2023/03/29 10:09:49;;;;;;;5.77;1.80;;;;;;;5.90;36.93;101172.30;1432152;91;21339;-87
2023/03/29 10:12:16;;;;;;;3.23;1.73;;;;;;;6.08;36.60;101171.60;1420446;91;21598;-87
2023/03/29 10:14:47;;;;;;;6.50;1.63;;;;;;;6.11;36.07;101171.40;1430960;91;21524;-87
2023/03/29 10:17:21;;;;;;;4.45;2.30;;;;;;;6.26;36.33;101167.75;1426250;91;22249;-86
2023/03/29 10:19:51;;;;;;;2.50;1.50;;;;;;;6.40;35.51;101164.20;1424877;91;21383;-85
2023/03/29 10:22:36;;;;;;;3.97;1.97;;;;;;;6.58;35.75;101154.70;1415528;92;22309;-86
2023/03/29 10:25:03;;;;;;;4.40;2.20;;;;;;;6.71;34.64;101152.45;1435979;91;21346;-87
2023/03/29 10:27:36;;;;;;;4.77;2.47;;;;;;;7.11;34.21;101144.44;1426127;91;21546;-83
2023/03/29 10:30:13;;;;;;;4.43;1.90;;;;;;;7.15;33.25;101152.95;1426448;91;22294;-85
2023/03/29 10:32:40;;;;;;;3.57;1.57;;;;;;;7.19;35.03;101152.64;1423606;91;21419;-86
2023/03/29 10:35:23;;;;;;;3.53;1.73;;;;;;;7.33;36.09;101151.64;1427545;91;21572;-85
2023/03/29 10:37:52;;;;;;;4.13;1.73;;;;;;;7.27;34.83;101153.88;1422376;91;22167;-87
2023/03/29 10:40:23;;;;;;;4.83;2.10;;;;;;;7.18;32.82;101148.78;1426444;90;21414;-87
2023/03/29 10:42:50;;;;;;;;;;;;;;;7.28;33.59;101140.62;1422782;91;21464;-86
2023/03/29 10:45:28;;;;;;;4.47;1.67;;;;;;;7.29;33.67;101142.29;1424283;91;20939;-87
2023/03/29 10:47:56;;;;;;;2.80;2.03;;;;;;;7.33;33.76;101152.13;1428110;91;22240;-85
2023/03/29 10:50:25;;;;;;;2.60;1.93;;;;;;;7.30;33.74;101146.59;1397432;91;21366;-86
2023/03/29 10:52:52;;;;;;;8.27;3.97;;;;;;;7.19;32.85;101145.19;1427415;91;21406;-87
2023/03/29 10:55:20;;;;;;;5.97;1.57;;;;;;;6.77;28.64;101141.52;1417890;91;22388;-84
2023/03/29 10:58:05;;;;;;;6.43;3.90;;;;;;;6.94;32.38;101134.25;1427707;91;21413;-84
2023/03/29 11:00:57;;;;;;;7.23;3.27;;;;;;;6.73;33.32;101128.21;1416604;92;21576;-87
2023/03/29 11:04:06;;;;;;;2.17;1.50;;;;;;;6.59;33.47;101129.63;1430712;91;21369;-87
2023/03/29 11:06:41;;;;;;;2.63;1.60;;;;;;;6.58;34.01;101131.87;1401014;91;21545;-85
2023/03/29 11:09:31;;;;;;;10.93;3.10;;;;;;;6.54;34.19;101132.56;1419417;91;21628;-86
2023/03/29 11:12:46;;;;;;;3.70;2.13;;;;;;;6.55;33.67;101130.77;1423250;91;21500;-87
2023/03/29 11:15:37;;;;;;;4.03;1.97;;;;;;;6.64;36.45;101128.82;1430821;91;21726;-86
2023/03/29 11:18:24;;;;;;;3.92;1.90;;;;;;;6.99;33.74;101119.83;1419812;91;22868;-87
2023/03/29 11:21:30;;;;;;;3.90;1.57;;;;;;;7.21;32.08;101109.91;1431223;91;21376;-84
2023/03/29 11:24:35;;;;;;;2.27;1.30;;;;;;;7.17;30.55;101116.36;1426073;91;21500;-87
2023/03/29 11:27:36;;;;;;;9.87;4.53;;;;;;;7.23;31.24;101104.07;1423868;91;21464;-87
2023/03/29 11:30:14;;;;;;;4.70;2.30;;;;;;;7.16;30.49;101108.11;1421536;91;22346;-88
2023/03/29 11:33:01;;;;;;;5.60;2.93;;;;;;;7.09;29.95;101104.20;1427438;91;21427;-87
2023/03/29 11:35:43;;;;;;;2.93;1.60;;;;;;;7.09;30.56;101102.06;1426933;91;21479;-89
2023/03/29 11:38:54;;;;;;;3.40;1.63;;;;;;;7.23;29.35;101098.80;1429587;91;21546;-84
2023/03/29 11:41:33;;;;;;;2.97;1.53;;;;;;;7.07;29.67;101100.00;1430141;91;21531;-80
2023/03/29 11:44:28;;;;;;;3.57;1.50;;;;;;;7.34;30.71;101095.41;1426482;91;21531;-80
2023/03/29 11:47:21;;;;;;;2.83;1.70;;;;;;;7.53;30.88;101096.22;1432658;91;21390;-80
2023/03/29 11:49:58;;;;;;;2.33;1.30;;;;;;;7.69;29.99;101088.05;1437190;91;21524;-80
2023/03/29 11:52:30;;;;;;;2.77;1.50;;;;;;;7.82;28.60;101084.02;1424321;91;21577;-80
2023/03/29 11:55:03;;;;;;;10.37;5.50;;;;;;;7.82;30.24;101087.97;1426266;91;21434;-80
2023/03/29 11:57:57;;;;;;;6.53;2.60;;;;;;;7.91;30.39;101087.28;1428582;91;21405;-80
2023/03/29 12:00:44;;;;;;;27.33;9.10;;;;;;;8.06;28.15;101080.89;1425620;91;21449;-80